sensor_id;sensor_type;location;lat;lon;timestamp;P1;durP1;ratioP1;P2;durP2;ratioP2
45065;SDS011;30830;53.704;10.004;2023-04-03T00:01:13;3.65;;;1.50;;
45065;SDS011;30830;53.704;10.004;2023-04-03T00:03:39;3.05;;;1.08;;
45065;SDS011;30830;53.704;10.004;2023-04-03T00:06:06;3.08;;;1.50;;
45065;SDS011;30830;53.704;10.004;2023-04-03T00:08:33;7.45;;;1.70;;
45065;SDS011;30830;53.704;10.004;2023-04-03T00:11:00;4.35;;;1.65;;
45065;SDS011;30830;53.704;10.004;2023-04-03T00:13:25;3.33;;;1.33;;
45065;SDS011;30830;53.704;10.004;2023-04-03T00:15:51;4.53;;;1.83;;
45065;SDS011;30830;53.704;10.004;2023-04-03T00:18:17;4.60;;;1.85;;
45065;SDS011;30830;53.704;10.004;2023-04-03T00:20:43;3.28;;;1.38;;
45065;SDS011;30830;53.704;10.004;2023-04-03T00:23:09;4.18;;;1.63;;
45065;SDS011;30830;53.704;10.004;2023-04-03T00:25:34;2.78;;;1.85;;
45065;SDS011;30830;53.704;10.004;2023-04-03T00:28:00;6.65;;;2.00;;
45065;SDS011;30830;53.704;10.004;2023-04-03T00:30:26;6.25;;;1.98;;
45065;SDS011;30830;53.704;10.004;2023-04-03T00:32:51;2.20;;;1.35;;
45065;SDS011;30830;53.704;10.004;2023-04-03T00:35:18;8.13;;;1.95;;
45065;SDS011;30830;53.704;10.004;2023-04-03T00:37:45;1.42;;;1.17;;
45065;SDS011;30830;53.704;10.004;2023-04-03T00:40:11;2.10;;;1.17;;
45065;SDS011;30830;53.704;10.004;2023-04-03T00:42:39;4.40;;;1.45;;
45065;SDS011;30830;53.704;10.004;2023-04-03T00:47:31;4.95;;;1.50;;
45065;SDS011;30830;53.704;10.004;2023-04-03T00:49:58;2.15;;;1.67;;
45065;SDS011;30830;53.704;10.004;2023-04-03T00:52:27;2.97;;;1.48;;
45065;SDS011;30830;53.704;10.004;2023-04-03T00:54:57;4.72;;;1.70;;
45065;SDS011;30830;53.704;10.004;2023-04-03T00:57:26;2.40;;;1.58;;
45065;SDS011;30830;53.704;10.004;2023-04-03T00:59:54;3.47;;;1.63;;
45065;SDS011;30830;53.704;10.004;2023-04-03T01:02:22;6.45;;;2.00;;
45065;SDS011;30830;53.704;10.004;2023-04-03T01:04:48;5.50;;;1.50;;
45065;SDS011;30830;53.704;10.004;2023-04-03T01:07:15;8.68;;;1.55;;
45065;SDS011;30830;53.704;10.004;2023-04-03T01:09:44;5.00;;;1.73;;
45065;SDS011;30830;53.704;10.004;2023-04-03T01:12:15;6.70;;;1.65;;
45065;SDS011;30830;53.704;10.004;2023-04-03T01:14:53;3.97;;;1.85;;
45065;SDS011;30830;53.704;10.004;2023-04-03T01:19:56;2.90;;;1.48;;
45065;SDS011;30830;53.704;10.004;2023-04-03T01:22:30;6.93;;;1.88;;
45065;SDS011;30830;53.704;10.004;2023-04-03T01:25:06;3.15;;;1.60;;
45065;SDS011;30830;53.704;10.004;2023-04-03T01:27:31;7.57;;;2.08;;
45065;SDS011;30830;53.704;10.004;2023-04-03T01:29:57;3.83;;;1.77;;
45065;SDS011;30830;53.704;10.004;2023-04-03T01:32:23;6.18;;;1.83;;
45065;SDS011;30830;53.704;10.004;2023-04-03T01:34:48;5.60;;;1.90;;
45065;SDS011;30830;53.704;10.004;2023-04-03T01:37:14;4.47;;;1.88;;
45065;SDS011;30830;53.704;10.004;2023-04-03T01:39:40;3.28;;;1.67;;
45065;SDS011;30830;53.704;10.004;2023-04-03T01:42:05;4.47;;;1.67;;
45065;SDS011;30830;53.704;10.004;2023-04-03T01:44:31;6.75;;;1.92;;
45065;SDS011;30830;53.704;10.004;2023-04-03T01:46:56;3.65;;;1.73;;
45065;SDS011;30830;53.704;10.004;2023-04-03T01:49:22;5.65;;;1.95;;
45065;SDS011;30830;53.704;10.004;2023-04-03T01:51:48;5.60;;;1.50;;
45065;SDS011;30830;53.704;10.004;2023-04-03T01:54:13;4.22;;;1.63;;
45065;SDS011;30830;53.704;10.004;2023-04-03T01:56:39;7.55;;;1.70;;
45065;SDS011;30830;53.704;10.004;2023-04-03T01:59:05;2.72;;;1.67;;
45065;SDS011;30830;53.704;10.004;2023-04-03T02:01:30;5.43;;;1.83;;
45065;SDS011;30830;53.704;10.004;2023-04-03T02:03:56;5.82;;;1.45;;
45065;SDS011;30830;53.704;10.004;2023-04-03T02:06:21;4.45;;;1.42;;
45065;SDS011;30830;53.704;10.004;2023-04-03T02:08:47;4.03;;;1.48;;
45065;SDS011;30830;53.704;10.004;2023-04-03T02:11:12;4.75;;;1.60;;
45065;SDS011;30830;53.704;10.004;2023-04-03T02:13:38;7.40;;;2.28;;
45065;SDS011;30830;53.704;10.004;2023-04-03T02:16:07;3.22;;;1.27;;
45065;SDS011;30830;53.704;10.004;2023-04-03T02:18:34;3.83;;;1.65;;
45065;SDS011;30830;53.704;10.004;2023-04-03T02:21:00;7.75;;;2.63;;
45065;SDS011;30830;53.704;10.004;2023-04-03T02:23:26;3.95;;;1.60;;
45065;SDS011;30830;53.704;10.004;2023-04-03T02:25:51;3.17;;;1.52;;
45065;SDS011;30830;53.704;10.004;2023-04-03T02:28:17;4.00;;;1.30;;
45065;SDS011;30830;53.704;10.004;2023-04-03T02:30:42;5.72;;;1.23;;
45065;SDS011;30830;53.704;10.004;2023-04-03T02:33:08;2.97;;;1.88;;
45065;SDS011;30830;53.704;10.004;2023-04-03T02:35:33;5.10;;;1.48;;
45065;SDS011;30830;53.704;10.004;2023-04-03T02:37:59;3.63;;;1.48;;
45065;SDS011;30830;53.704;10.004;2023-04-03T02:40:25;3.20;;;1.52;;
45065;SDS011;30830;53.704;10.004;2023-04-03T02:42:50;4.75;;;1.40;;
45065;SDS011;30830;53.704;10.004;2023-04-03T02:45:16;4.72;;;1.63;;
45065;SDS011;30830;53.704;10.004;2023-04-03T02:47:41;5.63;;;1.80;;
45065;SDS011;30830;53.704;10.004;2023-04-03T02:50:07;3.00;;;1.35;;
45065;SDS011;30830;53.704;10.004;2023-04-03T02:52:33;5.40;;;1.83;;
45065;SDS011;30830;53.704;10.004;2023-04-03T02:54:59;2.90;;;1.23;;
45065;SDS011;30830;53.704;10.004;2023-04-03T02:57:24;4.57;;;1.70;;
45065;SDS011;30830;53.704;10.004;2023-04-03T02:59:50;6.10;;;1.95;;
45065;SDS011;30830;53.704;10.004;2023-04-03T03:02:15;2.80;;;1.88;;
45065;SDS011;30830;53.704;10.004;2023-04-03T03:04:41;6.05;;;1.83;;
45065;SDS011;30830;53.704;10.004;2023-04-03T03:07:07;3.40;;;1.42;;
45065;SDS011;30830;53.704;10.004;2023-04-03T03:09:33;3.72;;;1.42;;
45065;SDS011;30830;53.704;10.004;2023-04-03T03:11:58;4.32;;;1.27;;
45065;SDS011;30830;53.704;10.004;2023-04-03T03:14:25;4.63;;;1.67;;
45065;SDS011;30830;53.704;10.004;2023-04-03T03:16:50;2.38;;;1.38;;
45065;SDS011;30830;53.704;10.004;2023-04-03T03:19:16;4.43;;;1.80;;
45065;SDS011;30830;53.704;10.004;2023-04-03T03:21:42;4.60;;;1.75;;
45065;SDS011;30830;53.704;10.004;2023-04-03T03:24:07;3.30;;;1.90;;
45065;SDS011;30830;53.704;10.004;2023-04-03T03:26:33;4.53;;;1.40;;
45065;SDS011;30830;53.704;10.004;2023-04-03T03:28:59;1.88;;;1.23;;
45065;SDS011;30830;53.704;10.004;2023-04-03T03:31:24;3.38;;;1.17;;
45065;SDS011;30830;53.704;10.004;2023-04-03T03:33:50;1.92;;;1.10;;
45065;SDS011;30830;53.704;10.004;2023-04-03T03:36:15;2.83;;;1.38;;
45065;SDS011;30830;53.704;10.004;2023-04-03T03:38:41;5.40;;;1.98;;
45065;SDS011;30830;53.704;10.004;2023-04-03T03:41:07;4.90;;;2.20;;
45065;SDS011;30830;53.704;10.004;2023-04-03T03:43:32;2.55;;;1.10;;
45065;SDS011;30830;53.704;10.004;2023-04-03T03:45:58;3.80;;;1.60;;
45065;SDS011;30830;53.704;10.004;2023-04-03T03:48:23;3.10;;;1.38;;
45065;SDS011;30830;53.704;10.004;2023-04-03T03:50:49;4.30;;;1.83;;
45065;SDS011;30830;53.704;10.004;2023-04-03T03:53:15;4.10;;;1.40;;
45065;SDS011;30830;53.704;10.004;2023-04-03T03:55:41;4.35;;;1.67;;
45065;SDS011;30830;53.704;10.004;2023-04-03T03:58:06;3.15;;;1.70;;
45065;SDS011;30830;53.704;10.004;2023-04-03T04:00:32;5.55;;;2.22;;
45065;SDS011;30830;53.704;10.004;2023-04-03T04:02:58;4.97;;;1.50;;
45065;SDS011;30830;53.704;10.004;2023-04-03T04:05:23;7.82;;;1.88;;
45065;SDS011;30830;53.704;10.004;2023-04-03T04:07:49;5.22;;;1.50;;
45065;SDS011;30830;53.704;10.004;2023-04-03T04:10:15;3.80;;;1.55;;
45065;SDS011;30830;53.704;10.004;2023-04-03T04:12:41;4.32;;;1.80;;
45065;SDS011;30830;53.704;10.004;2023-04-03T04:15:07;6.47;;;1.70;;
45065;SDS011;30830;53.704;10.004;2023-04-03T04:17:33;6.28;;;1.88;;
45065;SDS011;30830;53.704;10.004;2023-04-03T04:20:00;4.28;;;2.08;;
45065;SDS011;30830;53.704;10.004;2023-04-03T04:22:26;2.58;;;1.50;;
45065;SDS011;30830;53.704;10.004;2023-04-03T04:24:51;4.90;;;1.50;;
45065;SDS011;30830;53.704;10.004;2023-04-03T04:27:17;6.70;;;1.52;;
45065;SDS011;30830;53.704;10.004;2023-04-03T04:29:42;3.08;;;1.73;;
45065;SDS011;30830;53.704;10.004;2023-04-03T04:32:08;5.90;;;1.33;;
45065;SDS011;30830;53.704;10.004;2023-04-03T04:34:33;6.78;;;1.70;;
45065;SDS011;30830;53.704;10.004;2023-04-03T04:36:59;7.78;;;2.47;;
45065;SDS011;30830;53.704;10.004;2023-04-03T04:39:25;5.75;;;1.67;;
45065;SDS011;30830;53.704;10.004;2023-04-03T04:41:50;3.42;;;1.88;;
45065;SDS011;30830;53.704;10.004;2023-04-03T04:44:16;3.15;;;1.90;;
45065;SDS011;30830;53.704;10.004;2023-04-03T04:46:41;3.03;;;1.52;;
45065;SDS011;30830;53.704;10.004;2023-04-03T04:49:07;8.20;;;2.50;;
45065;SDS011;30830;53.704;10.004;2023-04-03T04:51:33;3.88;;;1.55;;
45065;SDS011;30830;53.704;10.004;2023-04-03T04:53:58;4.68;;;2.15;;
45065;SDS011;30830;53.704;10.004;2023-04-03T04:56:24;2.55;;;1.70;;
45065;SDS011;30830;53.704;10.004;2023-04-03T04:58:50;5.88;;;1.77;;
45065;SDS011;30830;53.704;10.004;2023-04-03T05:01:16;5.57;;;1.98;;
45065;SDS011;30830;53.704;10.004;2023-04-03T05:03:41;5.38;;;2.22;;
45065;SDS011;30830;53.704;10.004;2023-04-03T05:06:07;7.20;;;2.20;;
45065;SDS011;30830;53.704;10.004;2023-04-03T05:08:33;4.70;;;2.13;;
45065;SDS011;30830;53.704;10.004;2023-04-03T05:10:58;2.50;;;2.00;;
45065;SDS011;30830;53.704;10.004;2023-04-03T05:13:24;6.90;;;2.40;;
45065;SDS011;30830;53.704;10.004;2023-04-03T05:15:49;5.13;;;2.25;;
45065;SDS011;30830;53.704;10.004;2023-04-03T05:18:15;5.75;;;2.45;;
45065;SDS011;30830;53.704;10.004;2023-04-03T05:20:40;5.88;;;2.17;;
45065;SDS011;30830;53.704;10.004;2023-04-03T05:23:08;3.72;;;2.03;;
45065;SDS011;30830;53.704;10.004;2023-04-03T05:25:34;3.80;;;1.98;;
45065;SDS011;30830;53.704;10.004;2023-04-03T05:28:03;6.53;;;2.47;;
45065;SDS011;30830;53.704;10.004;2023-04-03T05:30:28;2.70;;;1.95;;
45065;SDS011;30830;53.704;10.004;2023-04-03T05:32:54;2.80;;;1.83;;
45065;SDS011;30830;53.704;10.004;2023-04-03T05:35:19;3.75;;;1.75;;
45065;SDS011;30830;53.704;10.004;2023-04-03T05:37:45;4.03;;;2.17;;
45065;SDS011;30830;53.704;10.004;2023-04-03T05:40:10;5.10;;;2.70;;
45065;SDS011;30830;53.704;10.004;2023-04-03T05:42:36;4.47;;;2.28;;
45065;SDS011;30830;53.704;10.004;2023-04-03T05:45:02;3.15;;;1.92;;
45065;SDS011;30830;53.704;10.004;2023-04-03T05:47:27;6.50;;;1.92;;
45065;SDS011;30830;53.704;10.004;2023-04-03T05:49:53;5.32;;;2.33;;
45065;SDS011;30830;53.704;10.004;2023-04-03T05:52:26;4.00;;;1.98;;
45065;SDS011;30830;53.704;10.004;2023-04-03T05:54:54;3.25;;;1.55;;
45065;SDS011;30830;53.704;10.004;2023-04-03T05:57:20;4.25;;;2.15;;
45065;SDS011;30830;53.704;10.004;2023-04-03T05:59:46;3.95;;;2.25;;
45065;SDS011;30830;53.704;10.004;2023-04-03T06:02:12;2.70;;;1.52;;
45065;SDS011;30830;53.704;10.004;2023-04-03T06:04:40;8.80;;;2.10;;
45065;SDS011;30830;53.704;10.004;2023-04-03T06:07:06;2.95;;;1.75;;
45065;SDS011;30830;53.704;10.004;2023-04-03T06:09:35;8.77;;;2.28;;
45065;SDS011;30830;53.704;10.004;2023-04-03T06:12:01;3.03;;;1.80;;
45065;SDS011;30830;53.704;10.004;2023-04-03T06:14:26;5.57;;;1.80;;
45065;SDS011;30830;53.704;10.004;2023-04-03T06:16:52;8.27;;;1.88;;
45065;SDS011;30830;53.704;10.004;2023-04-03T06:19:19;6.68;;;2.00;;
45065;SDS011;30830;53.704;10.004;2023-04-03T06:21:45;4.22;;;2.05;;
45065;SDS011;30830;53.704;10.004;2023-04-03T06:24:12;5.28;;;1.75;;
45065;SDS011;30830;53.704;10.004;2023-04-03T06:26:40;4.90;;;1.23;;
45065;SDS011;30830;53.704;10.004;2023-04-03T06:29:06;3.55;;;1.95;;
45065;SDS011;30830;53.704;10.004;2023-04-03T06:31:32;5.60;;;2.47;;
45065;SDS011;30830;53.704;10.004;2023-04-03T06:33:57;3.47;;;1.63;;
45065;SDS011;30830;53.704;10.004;2023-04-03T06:36:23;4.47;;;1.75;;
45065;SDS011;30830;53.704;10.004;2023-04-03T06:38:49;6.25;;;2.13;;
45065;SDS011;30830;53.704;10.004;2023-04-03T06:41:14;1.75;;;1.42;;
45065;SDS011;30830;53.704;10.004;2023-04-03T06:43:41;4.68;;;1.67;;
45065;SDS011;30830;53.704;10.004;2023-04-03T06:46:10;4.35;;;2.03;;
45065;SDS011;30830;53.704;10.004;2023-04-03T06:48:42;3.60;;;1.30;;
45065;SDS011;30830;53.704;10.004;2023-04-03T06:51:22;2.38;;;1.60;;
45065;SDS011;30830;53.704;10.004;2023-04-03T06:53:50;3.17;;;1.42;;
45065;SDS011;30830;53.704;10.004;2023-04-03T06:56:18;2.75;;;1.38;;
45065;SDS011;30830;53.704;10.004;2023-04-03T06:58:44;4.90;;;1.40;;
45065;SDS011;30830;53.704;10.004;2023-04-03T07:01:10;3.17;;;1.73;;
45065;SDS011;30830;53.704;10.004;2023-04-03T07:03:37;7.78;;;1.63;;
45065;SDS011;30830;53.704;10.004;2023-04-03T07:06:03;3.75;;;1.40;;
45065;SDS011;30830;53.704;10.004;2023-04-03T07:08:30;1.45;;;1.10;;
45065;SDS011;30830;53.704;10.004;2023-04-03T07:10:57;5.35;;;1.60;;
45065;SDS011;30830;53.704;10.004;2023-04-03T07:13:22;5.57;;;1.73;;
45065;SDS011;30830;53.704;10.004;2023-04-03T07:15:48;3.22;;;1.45;;
45065;SDS011;30830;53.704;10.004;2023-04-03T07:18:14;1.85;;;1.20;;
45065;SDS011;30830;53.704;10.004;2023-04-03T07:20:39;3.90;;;1.30;;
45065;SDS011;30830;53.704;10.004;2023-04-03T07:23:05;4.65;;;0.90;;
45065;SDS011;30830;53.704;10.004;2023-04-03T07:25:31;3.05;;;1.52;;
45065;SDS011;30830;53.704;10.004;2023-04-03T07:27:56;1.27;;;0.82;;
45065;SDS011;30830;53.704;10.004;2023-04-03T07:30:22;2.90;;;0.95;;
45065;SDS011;30830;53.704;10.004;2023-04-03T07:32:48;1.48;;;1.02;;
45065;SDS011;30830;53.704;10.004;2023-04-03T07:35:14;4.18;;;1.45;;
45065;SDS011;30830;53.704;10.004;2023-04-03T07:37:40;2.15;;;1.00;;
45065;SDS011;30830;53.704;10.004;2023-04-03T07:40:06;4.90;;;1.70;;
45065;SDS011;30830;53.704;10.004;2023-04-03T07:42:31;2.45;;;1.20;;
45065;SDS011;30830;53.704;10.004;2023-04-03T07:44:57;4.35;;;1.05;;
45065;SDS011;30830;53.704;10.004;2023-04-03T07:47:23;2.58;;;1.15;;
45065;SDS011;30830;53.704;10.004;2023-04-03T07:49:48;3.17;;;1.10;;
45065;SDS011;30830;53.704;10.004;2023-04-03T07:52:14;1.60;;;0.70;;
45065;SDS011;30830;53.704;10.004;2023-04-03T07:54:40;1.38;;;0.90;;
45065;SDS011;30830;53.704;10.004;2023-04-03T07:57:06;3.38;;;1.30;;
45065;SDS011;30830;53.704;10.004;2023-04-03T07:59:32;4.80;;;1.00;;
45065;SDS011;30830;53.704;10.004;2023-04-03T08:01:57;2.60;;;0.88;;
45065;SDS011;30830;53.704;10.004;2023-04-03T08:04:23;5.70;;;1.20;;
45065;SDS011;30830;53.704;10.004;2023-04-03T08:06:50;6.75;;;1.52;;
45065;SDS011;30830;53.704;10.004;2023-04-03T08:09:16;2.85;;;1.00;;
45065;SDS011;30830;53.704;10.004;2023-04-03T08:11:42;2.08;;;1.33;;
45065;SDS011;30830;53.704;10.004;2023-04-03T08:14:09;4.32;;;1.13;;
45065;SDS011;30830;53.704;10.004;2023-04-03T08:16:40;1.35;;;0.98;;
45065;SDS011;30830;53.704;10.004;2023-04-03T08:19:06;1.63;;;0.93;;
45065;SDS011;30830;53.704;10.004;2023-04-03T08:21:32;2.20;;;0.77;;
45065;SDS011;30830;53.704;10.004;2023-04-03T08:23:58;2.33;;;1.02;;
45065;SDS011;30830;53.704;10.004;2023-04-03T08:26:23;3.15;;;1.02;;
45065;SDS011;30830;53.704;10.004;2023-04-03T08:28:51;1.58;;;0.90;;
45065;SDS011;30830;53.704;10.004;2023-04-03T08:31:17;4.82;;;1.10;;
45065;SDS011;30830;53.704;10.004;2023-04-03T08:33:44;5.93;;;1.33;;
45065;SDS011;30830;53.704;10.004;2023-04-03T08:36:29;2.40;;;1.45;;
45065;SDS011;30830;53.704;10.004;2023-04-03T08:38:55;1.60;;;1.20;;
45065;SDS011;30830;53.704;10.004;2023-04-03T08:44:03;8.77;;;0.63;;
45065;SDS011;30830;53.704;10.004;2023-04-03T08:46:40;4.38;;;1.15;;
45065;SDS011;30830;53.704;10.004;2023-04-03T08:49:17;1.75;;;0.70;;
45065;SDS011;30830;53.704;10.004;2023-04-03T08:55:04;4.63;;;1.20;;
45065;SDS011;30830;53.704;10.004;2023-04-03T08:57:39;2.83;;;0.70;;
45065;SDS011;30830;53.704;10.004;2023-04-03T09:00:19;2.05;;;0.77;;
45065;SDS011;30830;53.704;10.004;2023-04-03T09:02:48;3.03;;;0.88;;
45065;SDS011;30830;53.704;10.004;2023-04-03T09:05:27;5.57;;;1.00;;
45065;SDS011;30830;53.704;10.004;2023-04-03T09:08:18;1.70;;;0.60;;
45065;SDS011;30830;53.704;10.004;2023-04-03T09:10:53;3.50;;;0.70;;
45065;SDS011;30830;53.704;10.004;2023-04-03T09:13:53;1.48;;;0.82;;
45065;SDS011;30830;53.704;10.004;2023-04-03T09:24:47;0.65;;;0.43;;
45065;SDS011;30830;53.704;10.004;2023-04-03T09:27:21;1.60;;;0.80;;
45065;SDS011;30830;53.704;10.004;2023-04-03T09:29:46;1.83;;;0.50;;
45065;SDS011;30830;53.704;10.004;2023-04-03T09:32:22;2.20;;;0.70;;
45065;SDS011;30830;53.704;10.004;2023-04-03T09:34:56;1.38;;;0.45;;
45065;SDS011;30830;53.704;10.004;2023-04-03T09:37:42;2.53;;;0.93;;
45065;SDS011;30830;53.704;10.004;2023-04-03T09:42:50;2.33;;;0.60;;
45065;SDS011;30830;53.704;10.004;2023-04-03T09:48:37;1.45;;;0.77;;
45065;SDS011;30830;53.704;10.004;2023-04-03T09:50:52;3.35;;;1.02;;
45065;SDS011;30830;53.704;10.004;2023-04-03T09:53:28;3.08;;;0.80;;
45065;SDS011;30830;53.704;10.004;2023-04-03T09:56:03;1.88;;;1.05;;
45065;SDS011;30830;53.704;10.004;2023-04-03T09:58:46;3.10;;;1.00;;
45065;SDS011;30830;53.704;10.004;2023-04-03T10:01:35;4.40;;;0.90;;
45065;SDS011;30830;53.704;10.004;2023-04-03T10:04:10;2.15;;;0.57;;
45065;SDS011;30830;53.704;10.004;2023-04-03T10:06:42;2.72;;;1.15;;
45065;SDS011;30830;53.704;10.004;2023-04-03T10:14:19;3.20;;;0.80;;
45065;SDS011;30830;53.704;10.004;2023-04-03T10:16:50;4.25;;;0.95;;
45065;SDS011;30830;53.704;10.004;2023-04-03T10:19:36;2.75;;;0.57;;
45065;SDS011;30830;53.704;10.004;2023-04-03T10:22:11;1.42;;;0.88;;
45065;SDS011;30830;53.704;10.004;2023-04-03T10:27:51;3.03;;;1.25;;
45065;SDS011;30830;53.704;10.004;2023-04-03T10:41:12;0.80;;;0.50;;
45065;SDS011;30830;53.704;10.004;2023-04-03T10:46:47;3.05;;;1.10;;
45065;SDS011;30830;53.704;10.004;2023-04-03T10:49:43;0.93;;;0.70;;
45065;SDS011;30830;53.704;10.004;2023-04-03T10:52:22;1.13;;;0.80;;
45065;SDS011;30830;53.704;10.004;2023-04-03T10:55:02;2.13;;;0.88;;
45065;SDS011;30830;53.704;10.004;2023-04-03T10:57:45;2.20;;;0.80;;
45065;SDS011;30830;53.704;10.004;2023-04-03T11:00:21;2.95;;;1.08;;
45065;SDS011;30830;53.704;10.004;2023-04-03T11:02:56;4.05;;;0.88;;
45065;SDS011;30830;53.704;10.004;2023-04-03T11:05:36;1.15;;;0.80;;
45065;SDS011;30830;53.704;10.004;2023-04-03T11:10:48;2.30;;;0.68;;
45065;SDS011;30830;53.704;10.004;2023-04-03T11:13:17;0.77;;;0.60;;
45065;SDS011;30830;53.704;10.004;2023-04-03T11:16:02;0.68;;;0.60;;
45065;SDS011;30830;53.704;10.004;2023-04-03T11:21:12;1.17;;;0.65;;
45065;SDS011;30830;53.704;10.004;2023-04-03T11:26:12;3.83;;;1.37;;
45065;SDS011;30830;53.704;10.004;2023-04-03T11:28:55;2.72;;;0.95;;
45065;SDS011;30830;53.704;10.004;2023-04-03T11:31:28;3.03;;;0.70;;
45065;SDS011;30830;53.704;10.004;2023-04-03T11:34:33;1.40;;;0.75;;
45065;SDS011;30830;53.704;10.004;2023-04-03T11:37:01;3.85;;;1.05;;
45065;SDS011;30830;53.704;10.004;2023-04-03T11:39:36;0.70;;;0.40;;
45065;SDS011;30830;53.704;10.004;2023-04-03T11:43:05;1.35;;;0.50;;
45065;SDS011;30830;53.704;10.004;2023-04-03T11:50:47;1.75;;;0.57;;
45065;SDS011;30830;53.704;10.004;2023-04-03T12:03:29;1.55;;;0.98;;
45065;SDS011;30830;53.704;10.004;2023-04-03T12:16:26;2.38;;;0.60;;
45065;SDS011;30830;53.704;10.004;2023-04-03T12:27:00;1.08;;;0.70;;
45065;SDS011;30830;53.704;10.004;2023-04-03T12:35:51;3.10;;;0.65;;
45065;SDS011;30830;53.704;10.004;2023-04-03T12:41:14;3.25;;;1.02;;
45065;SDS011;30830;53.704;10.004;2023-04-03T12:46:44;1.00;;;0.60;;
45065;SDS011;30830;53.704;10.004;2023-04-03T12:52:17;1.67;;;0.60;;
45065;SDS011;30830;53.704;10.004;2023-04-03T12:54:54;2.42;;;1.10;;
45065;SDS011;30830;53.704;10.004;2023-04-03T12:57:23;1.17;;;0.70;;
45065;SDS011;30830;53.704;10.004;2023-04-03T12:59:51;2.60;;;0.93;;
45065;SDS011;30830;53.704;10.004;2023-04-03T13:04:45;2.70;;;0.63;;
45065;SDS011;30830;53.704;10.004;2023-04-03T13:07:21;2.60;;;1.00;;
45065;SDS011;30830;53.704;10.004;2023-04-03T13:12:32;3.80;;;1.00;;
45065;SDS011;30830;53.704;10.004;2023-04-03T13:15:17;1.83;;;0.70;;
45065;SDS011;30830;53.704;10.004;2023-04-03T13:17:52;1.88;;;0.80;;
45065;SDS011;30830;53.704;10.004;2023-04-03T13:20:23;6.20;;;0.88;;
45065;SDS011;30830;53.704;10.004;2023-04-03T13:23:27;1.67;;;0.80;;
45065;SDS011;30830;53.704;10.004;2023-04-03T13:25:46;2.38;;;1.05;;
45065;SDS011;30830;53.704;10.004;2023-04-03T13:28:14;5.50;;;1.02;;
45065;SDS011;30830;53.704;10.004;2023-04-03T13:30:57;2.65;;;0.95;;
45065;SDS011;30830;53.704;10.004;2023-04-03T13:33:28;2.53;;;0.70;;
45065;SDS011;30830;53.704;10.004;2023-04-03T13:36:04;2.60;;;0.77;;
45065;SDS011;30830;53.704;10.004;2023-04-03T13:38:42;2.20;;;0.60;;
45065;SDS011;30830;53.704;10.004;2023-04-03T13:43:48;1.80;;;0.93;;
45065;SDS011;30830;53.704;10.004;2023-04-03T13:48:40;1.80;;;1.15;;
45065;SDS011;30830;53.704;10.004;2023-04-03T13:53:51;3.13;;;0.93;;
45065;SDS011;30830;53.704;10.004;2023-04-03T13:56:34;6.57;;;1.08;;
45065;SDS011;30830;53.704;10.004;2023-04-03T14:04:11;2.60;;;1.10;;
45065;SDS011;30830;53.704;10.004;2023-04-03T14:06:46;2.67;;;1.25;;
45065;SDS011;30830;53.704;10.004;2023-04-03T14:09:12;4.28;;;1.00;;
45065;SDS011;30830;53.704;10.004;2023-04-03T14:11:39;1.58;;;0.73;;
45065;SDS011;30830;53.704;10.004;2023-04-03T14:14:09;3.33;;;1.05;;
45065;SDS011;30830;53.704;10.004;2023-04-03T14:16:40;2.25;;;1.38;;
45065;SDS011;30830;53.704;10.004;2023-04-03T14:19:13;2.63;;;1.10;;
45065;SDS011;30830;53.704;10.004;2023-04-03T14:21:43;1.08;;;0.60;;
45065;SDS011;30830;53.704;10.004;2023-04-03T14:24:09;3.05;;;1.33;;
45065;SDS011;30830;53.704;10.004;2023-04-03T14:26:36;2.80;;;1.05;;
45065;SDS011;30830;53.704;10.004;2023-04-03T14:29:02;3.90;;;0.98;;
45065;SDS011;30830;53.704;10.004;2023-04-03T14:31:27;2.53;;;1.08;;
45065;SDS011;30830;53.704;10.004;2023-04-03T14:33:53;3.30;;;0.98;;
45065;SDS011;30830;53.704;10.004;2023-04-03T14:36:20;1.95;;;1.00;;
45065;SDS011;30830;53.704;10.004;2023-04-03T14:38:50;1.85;;;0.80;;
45065;SDS011;30830;53.704;10.004;2023-04-03T14:41:17;5.45;;;1.23;;
45065;SDS011;30830;53.704;10.004;2023-04-03T14:43:44;2.80;;;1.40;;
45065;SDS011;30830;53.704;10.004;2023-04-03T14:46:30;2.88;;;1.35;;
45065;SDS011;30830;53.704;10.004;2023-04-03T14:48:58;3.20;;;1.23;;
45065;SDS011;30830;53.704;10.004;2023-04-03T14:51:24;2.47;;;1.10;;
45065;SDS011;30830;53.704;10.004;2023-04-03T14:53:51;1.40;;;0.75;;
45065;SDS011;30830;53.704;10.004;2023-04-03T14:56:21;2.92;;;0.95;;
45065;SDS011;30830;53.704;10.004;2023-04-03T14:58:51;2.35;;;0.95;;
45065;SDS011;30830;53.704;10.004;2023-04-03T15:01:21;3.42;;;1.05;;
45065;SDS011;30830;53.704;10.004;2023-04-03T15:03:46;2.00;;;1.30;;
45065;SDS011;30830;53.704;10.004;2023-04-03T15:06:12;1.15;;;0.70;;
45065;SDS011;30830;53.704;10.004;2023-04-03T15:08:39;2.90;;;1.00;;
45065;SDS011;30830;53.704;10.004;2023-04-03T15:11:07;2.63;;;0.85;;
45065;SDS011;30830;53.704;10.004;2023-04-03T15:13:34;1.67;;;0.90;;
45065;SDS011;30830;53.704;10.004;2023-04-03T15:16:00;3.03;;;0.95;;
45065;SDS011;30830;53.704;10.004;2023-04-03T15:18:26;1.35;;;0.98;;
45065;SDS011;30830;53.704;10.004;2023-04-03T15:20:55;2.47;;;0.98;;
45065;SDS011;30830;53.704;10.004;2023-04-03T15:23:20;3.25;;;1.10;;
45065;SDS011;30830;53.704;10.004;2023-04-03T15:25:51;1.13;;;0.95;;
45065;SDS011;30830;53.704;10.004;2023-04-03T15:28:28;2.55;;;0.90;;
45065;SDS011;30830;53.704;10.004;2023-04-03T15:30:57;2.28;;;1.10;;
45065;SDS011;30830;53.704;10.004;2023-04-03T15:33:23;4.18;;;1.02;;
45065;SDS011;30830;53.704;10.004;2023-04-03T15:35:50;2.85;;;1.35;;
45065;SDS011;30830;53.704;10.004;2023-04-03T15:38:15;3.65;;;1.38;;
45065;SDS011;30830;53.704;10.004;2023-04-03T15:40:41;5.20;;;1.05;;
45065;SDS011;30830;53.704;10.004;2023-04-03T15:43:07;1.48;;;0.70;;
45065;SDS011;30830;53.704;10.004;2023-04-03T15:45:33;3.95;;;1.00;;
45065;SDS011;30830;53.704;10.004;2023-04-03T15:48:00;1.80;;;0.95;;
45065;SDS011;30830;53.704;10.004;2023-04-03T15:50:27;4.10;;;1.33;;
45065;SDS011;30830;53.704;10.004;2023-04-03T15:52:52;2.47;;;1.23;;
45065;SDS011;30830;53.704;10.004;2023-04-03T15:55:23;3.80;;;0.82;;
45065;SDS011;30830;53.704;10.004;2023-04-03T15:57:50;1.08;;;0.73;;
45065;SDS011;30830;53.704;10.004;2023-04-03T16:00:16;2.72;;;1.38;;
45065;SDS011;30830;53.704;10.004;2023-04-03T16:02:42;1.92;;;1.40;;
45065;SDS011;30830;53.704;10.004;2023-04-03T16:05:10;2.88;;;1.10;;
45065;SDS011;30830;53.704;10.004;2023-04-03T16:07:39;3.58;;;1.00;;
45065;SDS011;30830;53.704;10.004;2023-04-03T16:10:05;3.83;;;1.35;;
45065;SDS011;30830;53.704;10.004;2023-04-03T16:12:32;2.15;;;1.15;;
45065;SDS011;30830;53.704;10.004;2023-04-03T16:14:58;2.80;;;1.10;;
45065;SDS011;30830;53.704;10.004;2023-04-03T16:17:24;3.72;;;1.13;;
45065;SDS011;30830;53.704;10.004;2023-04-03T16:19:51;4.10;;;1.13;;
45065;SDS011;30830;53.704;10.004;2023-04-03T16:22:17;4.80;;;1.75;;
45065;SDS011;30830;53.704;10.004;2023-04-03T16:24:42;2.88;;;1.20;;
45065;SDS011;30830;53.704;10.004;2023-04-03T16:27:08;2.95;;;0.88;;
45065;SDS011;30830;53.704;10.004;2023-04-03T16:29:33;3.95;;;1.35;;
45065;SDS011;30830;53.704;10.004;2023-04-03T16:31:59;4.32;;;1.25;;
45065;SDS011;30830;53.704;10.004;2023-04-03T16:34:25;5.82;;;1.17;;
45065;SDS011;30830;53.704;10.004;2023-04-03T16:36:51;3.22;;;1.45;;
45065;SDS011;30830;53.704;10.004;2023-04-03T16:39:18;4.53;;;1.45;;
45065;SDS011;30830;53.704;10.004;2023-04-03T16:41:43;2.35;;;1.10;;
45065;SDS011;30830;53.704;10.004;2023-04-03T16:44:10;2.47;;;1.02;;